createdAt,value
2019-04-20T00:03:55.317Z,14.37
2019-04-20T00:06:43.216Z,15.73
2019-04-20T00:09:24.704Z,15.70
2019-04-20T00:12:08.932Z,14.30
2019-04-20T00:14:44.161Z,14.33
2019-04-20T00:17:25.597Z,14.97
2019-04-20T00:20:13.358Z,14.40
2019-04-20T00:23:19.746Z,14.20
2019-04-20T00:26:22.332Z,16.17
2019-04-20T00:29:19.388Z,15.07
2019-04-20T00:31:51.430Z,15.40
2019-04-20T00:34:29.228Z,15.43
2019-04-20T00:37:05.777Z,14.80
2019-04-20T00:39:48.779Z,16.10
2019-04-20T00:42:36.601Z,14.53
2019-04-20T00:45:20.350Z,13.10
2019-04-20T00:48:02.450Z,12.90
2019-04-20T00:50:48.827Z,15.93
2019-04-20T00:53:26.159Z,14.37
2019-04-20T00:56:03.397Z,12.47
2019-04-20T00:58:58.160Z,14.27
2019-04-20T01:01:47.493Z,14.23
2019-04-20T01:04:29.862Z,13.27
2019-04-20T01:10:11.032Z,13.20
2019-04-20T01:13:01.163Z,18.33
2019-04-20T01:15:45.641Z,17.63
2019-04-20T01:18:18.767Z,16.03
2019-04-20T01:21:06.566Z,15.93
2019-04-20T01:23:49.589Z,15.60
2019-04-20T01:26:26.044Z,18.90
2019-04-20T01:29:19.179Z,14.20
2019-04-20T01:32:05.689Z,14.00
2019-04-20T01:34:50.201Z,16.23
2019-04-20T01:37:29.747Z,14.90
2019-04-20T01:40:02.650Z,14.80
2019-04-20T01:42:42.478Z,15.20
2019-04-20T01:45:29.326Z,13.90
2019-04-20T01:48:08.137Z,13.50
2019-04-20T01:50:59.835Z,15.37
2019-04-20T01:56:54.900Z,15.20
2019-04-20T01:59:44.902Z,14.17
2019-04-20T02:05:53.035Z,18.30
2019-04-20T02:08:28.132Z,17.43
2019-04-20T02:11:08.085Z,22.87
2019-04-20T02:13:56.567Z,18.77
2019-04-20T02:16:39.234Z,14.47
2019-04-20T02:19:32.057Z,22.80
2019-04-20T02:22:09.808Z,18.37
2019-04-20T02:24:40.612Z,16.23
2019-04-20T02:27:31.323Z,17.20
2019-04-20T02:30:41.015Z,17.83
2019-04-20T02:33:37.053Z,22.43
2019-04-20T02:45:13.359Z,16.83
2019-04-20T02:47:47.810Z,20.23
2019-04-20T02:50:13.325Z,16.23
2019-04-20T02:55:41.977Z,16.93
2019-04-20T02:58:23.939Z,17.40
2019-04-20T03:00:52.731Z,17.03
2019-04-20T03:03:26.467Z,15.43
2019-04-20T03:06:08.679Z,19.27
2019-04-20T03:09:04.798Z,15.60
2019-04-20T03:11:52.985Z,16.90
2019-04-20T03:14:09.538Z,14.43
2019-04-20T03:17:01.403Z,16.23
2019-04-20T03:19:47.598Z,18.00
2019-04-20T03:25:58.286Z,22.20
2019-04-20T03:29:01.848Z,19.53
2019-04-20T03:37:41.048Z,19.90
2019-04-20T03:40:10.408Z,22.40
2019-04-20T03:42:37.058Z,21.63
2019-04-20T03:45:21.346Z,21.17
2019-04-20T03:48:12.547Z,25.43
2019-04-20T03:51:02.298Z,21.47
2019-04-20T03:54:07.570Z,24.83
2019-04-20T03:57:15.707Z,21.23
2019-04-20T04:00:13.048Z,21.50
2019-04-20T04:05:49.172Z,17.43
2019-04-20T04:08:26.625Z,20.10
2019-04-20T04:11:18.938Z,18.43
2019-04-20T04:13:43.716Z,16.40
2019-04-20T04:16:34.220Z,18.27
2019-04-20T04:19:16.171Z,14.27
2019-04-20T04:22:04.122Z,14.20
2019-04-20T04:24:46.625Z,17.57
2019-04-20T04:27:36.981Z,17.33
2019-04-20T04:30:14.442Z,15.90
2019-04-20T04:33:20.114Z,14.13
2019-04-20T04:35:35.073Z,14.40
2019-04-20T04:38:32.739Z,15.63
2019-04-20T04:41:16.434Z,18.30
2019-04-20T04:43:49.877Z,18.10
2019-04-20T04:46:14.746Z,14.53
2019-04-20T04:49:06.854Z,14.70
2019-04-20T04:51:44.644Z,14.13
2019-04-20T04:54:28.849Z,18.77
2019-04-20T04:57:03.390Z,16.67
2019-04-20T04:59:44.590Z,13.60
2019-04-20T05:02:32.501Z,13.27
2019-04-20T05:05:48.678Z,13.20
2019-04-20T05:08:23.428Z,18.83
2019-04-20T05:10:56.188Z,16.20
2019-04-20T05:13:44.721Z,17.37
2019-04-20T05:16:40.068Z,18.20
2019-04-20T05:19:26.063Z,14.77
2019-04-20T05:22:11.067Z,15.30
2019-04-20T05:28:01.817Z,14.67
2019-04-20T05:30:24.563Z,13.70
2019-04-20T05:33:08.952Z,11.93
2019-04-20T05:36:05.688Z,18.97
2019-04-20T05:38:55.790Z,13.27
2019-04-20T05:41:31.077Z,16.10
2019-04-20T05:47:11.365Z,14.77
2019-04-20T05:49:53.761Z,12.50
2019-04-20T05:52:49.147Z,14.70
2019-04-20T05:55:22.177Z,13.33
2019-04-20T05:58:13.940Z,12.07
2019-04-20T06:00:49.846Z,12.30
2019-04-20T06:03:26.155Z,13.40
2019-04-20T06:06:07.945Z,12.53
2019-04-20T06:08:59.566Z,13.43
2019-04-20T06:11:44.485Z,16.37
2019-04-20T06:14:39.212Z,11.87
2019-04-20T06:20:39.223Z,12.63
2019-04-20T06:26:44.222Z,15.90
2019-04-20T06:28:54.069Z,14.23
2019-04-20T06:31:45.463Z,14.73
2019-04-20T06:34:33.449Z,11.07
2019-04-20T06:37:09.883Z,10.20
2019-04-20T06:39:59.206Z,10.90
2019-04-20T06:42:31.911Z,11.47
2019-04-20T06:45:20.224Z,9.77
2019-04-20T06:47:58.000Z,12.37
2019-04-20T06:50:39.034Z,10.03
2019-04-20T06:53:47.011Z,8.47
2019-04-20T06:59:21.404Z,9.83
2019-04-20T07:02:17.190Z,11.30
2019-04-20T07:10:08.736Z,8.40
2019-04-20T07:12:41.997Z,9.80
2019-04-20T07:15:22.674Z,12.10
2019-04-20T07:18:26.431Z,8.70
2019-04-20T07:21:14.895Z,7.33
2019-04-20T07:24:03.397Z,7.37
2019-04-20T07:26:46.338Z,8.60
2019-04-20T07:29:32.013Z,7.80
2019-04-20T07:31:57.774Z,7.50
2019-04-20T07:34:48.780Z,6.93
2019-04-20T07:40:38.406Z,7.50
2019-04-20T07:43:19.744Z,8.60
2019-04-20T07:46:10.483Z,7.07
2019-04-20T07:48:49.386Z,7.67
2019-04-20T07:51:18.269Z,7.07
2019-04-20T07:54:24.596Z,8.37
2019-04-20T07:56:57.635Z,8.63
2019-04-20T07:59:31.119Z,7.57
2019-04-20T08:02:45.058Z,8.20
2019-04-20T08:05:39.430Z,7.07
2019-04-20T08:08:30.969Z,7.80
2019-04-20T08:11:12.492Z,8.33
2019-04-20T08:14:01.185Z,8.47
2019-04-20T08:16:46.693Z,8.60
2019-04-20T08:19:16.470Z,6.83
2019-04-20T08:22:08.356Z,12.80
2019-04-20T08:24:45.358Z,9.07
2019-04-20T08:27:14.482Z,9.60
2019-04-20T08:33:16.481Z,8.60
2019-04-20T08:36:01.218Z,9.17
2019-04-20T08:41:21.885Z,9.10
2019-04-20T08:44:31.097Z,11.50
2019-04-20T08:47:01.791Z,9.20
2019-04-20T08:49:35.029Z,9.87
2019-04-20T08:52:41.258Z,8.03
2019-04-20T08:54:58.224Z,10.93
2019-04-20T08:57:20.103Z,9.17
2019-04-20T09:00:03.096Z,8.97
2019-04-20T09:02:48.853Z,8.80
2019-04-20T09:05:34.709Z,11.43
2019-04-20T09:08:06.731Z,11.93
2019-04-20T09:10:45.322Z,9.73
2019-04-20T09:13:09.588Z,11.30
2019-04-20T09:15:49.293Z,9.63
2019-04-20T09:25:07.456Z,10.03
2019-04-20T09:34:10.475Z,13.70
2019-04-20T09:36:49.888Z,12.47
2019-04-20T09:45:47.973Z,11.23
2019-04-20T09:48:34.712Z,14.23
2019-04-20T09:51:24.735Z,14.17
2019-04-20T09:54:04.108Z,11.80
2019-04-20T09:56:35.675Z,10.87
2019-04-20T09:59:12.200Z,11.43
2019-04-20T10:01:32.621Z,11.70
2019-04-20T10:04:13.302Z,12.03
2019-04-20T10:07:11.224Z,15.10
2019-04-20T10:09:53.734Z,16.03
2019-04-20T10:12:42.219Z,12.13
2019-04-20T10:15:37.565Z,12.07
2019-04-20T10:18:27.988Z,11.37
2019-04-20T10:24:24.418Z,23.57
2019-04-20T10:27:14.614Z,11.73
2019-04-20T10:30:05.889Z,9.97
2019-04-20T10:32:54.161Z,11.90
2019-04-20T10:35:36.037Z,10.90
2019-04-20T10:38:23.357Z,10.90
2019-04-20T10:41:13.228Z,10.70
2019-04-20T10:43:48.939Z,13.00
2019-04-20T10:46:31.121Z,17.67
2019-04-20T10:49:13.284Z,14.03
2019-04-20T10:51:54.076Z,11.20
2019-04-20T10:54:34.891Z,12.37
2019-04-20T10:57:17.443Z,14.33
2019-04-20T10:59:59.608Z,15.20
2019-04-20T11:02:43.022Z,15.07
2019-04-20T11:05:24.422Z,16.30
2019-04-20T11:08:06.284Z,13.80
2019-04-20T11:10:58.929Z,14.17
2019-04-20T11:13:29.711Z,15.00
2019-04-20T11:16:10.861Z,11.93
2019-04-20T11:18:51.447Z,12.70
2019-04-20T11:21:32.357Z,12.73
2019-04-20T11:24:14.357Z,14.90
2019-04-20T11:26:56.217Z,13.37
2019-04-20T11:29:38.087Z,13.37
2019-04-20T11:32:20.185Z,13.60
2019-04-20T11:35:11.434Z,15.00
2019-04-20T11:37:44.908Z,15.67
2019-04-20T11:40:26.686Z,13.33
2019-04-20T11:43:07.897Z,13.60
2019-04-20T11:45:48.905Z,12.73
2019-04-20T11:48:31.604Z,12.03
2019-04-20T11:51:13.769Z,12.83
2019-04-20T11:53:54.639Z,16.20
2019-04-20T11:56:40.356Z,14.77
2019-04-20T11:59:18.959Z,12.10
2019-04-20T12:02:07.596Z,12.73
2019-04-20T12:05:06.339Z,9.90
2019-04-20T12:07:36.294Z,10.17
2019-04-20T12:10:20.952Z,11.93
2019-04-20T12:12:59.645Z,15.00
2019-04-20T12:15:41.395Z,11.17
2019-04-20T12:18:23.370Z,13.93
2019-04-20T12:21:05.018Z,9.90
2019-04-20T12:23:46.476Z,11.57
2019-04-20T12:26:28.957Z,9.87
2019-04-20T12:29:10.407Z,10.07
2019-04-20T12:31:56.326Z,11.13
2019-04-20T12:34:34.768Z,12.73
2019-04-20T12:37:15.627Z,12.13
2019-04-20T12:39:57.452Z,12.73
2019-04-20T12:42:39.121Z,9.77
2019-04-20T12:45:21.712Z,13.60
2019-04-20T12:48:03.882Z,11.20
2019-04-20T12:50:45.640Z,11.63
2019-04-20T12:53:24.847Z,10.60
2019-04-20T12:56:12.848Z,10.87
2019-04-20T12:59:00.844Z,12.10
2019-04-20T13:01:49.224Z,11.63
2019-04-20T13:04:39.477Z,11.27
2019-04-20T13:07:31.555Z,10.50
2019-04-20T13:10:18.547Z,9.97
2019-04-20T13:13:26.181Z,11.30
2019-04-20T13:16:34.380Z,11.97
2019-04-20T13:22:19.008Z,11.57
2019-04-20T13:25:07.955Z,17.73
2019-04-20T13:27:56.908Z,12.20
2019-04-20T13:30:45.947Z,12.33
2019-04-20T13:33:35.401Z,12.73
2019-04-20T13:36:16.588Z,13.10
2019-04-20T13:38:59.414Z,13.50
2019-04-20T13:41:40.055Z,17.60
2019-04-20T13:44:21.914Z,11.50
2019-04-20T13:47:03.275Z,13.07
2019-04-20T13:49:45.217Z,12.40
2019-04-20T13:52:26.808Z,11.53
2019-04-20T13:55:08.731Z,13.10
2019-04-20T14:01:06.225Z,11.97
2019-04-20T14:06:53.392Z,11.30
2019-04-20T14:09:35.404Z,12.73
2019-04-20T14:12:23.308Z,10.80
2019-04-20T14:14:59.432Z,12.73
2019-04-20T14:17:41.410Z,13.43
2019-04-20T14:20:23.898Z,13.33
2019-04-20T14:23:05.327Z,18.20
2019-04-20T14:25:46.973Z,13.57
2019-04-20T14:28:29.109Z,11.20
2019-04-20T14:31:10.108Z,20.57
2019-04-20T14:33:50.999Z,10.73
2019-04-20T14:36:32.842Z,11.27
2019-04-20T14:39:14.150Z,10.27
2019-04-20T14:41:56.187Z,11.27
2019-04-20T14:44:37.819Z,10.63
2019-04-20T14:47:19.277Z,12.13
2019-04-20T14:50:02.867Z,12.53
2019-04-20T14:52:43.836Z,10.80
2019-04-20T14:55:25.833Z,10.53
2019-04-20T14:58:13.310Z,11.33
2019-04-20T15:01:00.521Z,10.33
2019-04-20T15:03:43.759Z,9.33
2019-04-20T15:06:25.568Z,9.33
2019-04-20T15:09:08.591Z,9.53
2019-04-20T15:11:50.747Z,10.73
2019-04-20T15:14:32.384Z,13.33
2019-04-20T15:17:17.371Z,9.90
2019-04-20T15:20:05.629Z,9.80
2019-04-20T15:22:49.827Z,12.27
2019-04-20T15:25:31.667Z,8.83
2019-04-20T15:28:12.621Z,10.60
2019-04-20T15:30:54.187Z,10.40
2019-04-20T15:33:35.076Z,12.83
2019-04-20T15:36:16.278Z,9.07
2019-04-20T15:38:58.973Z,8.53
2019-04-20T15:41:40.961Z,8.90
2019-04-20T15:44:21.638Z,7.87
2019-04-20T15:47:03.531Z,9.87
2019-04-20T15:49:44.212Z,7.97
2019-04-20T15:52:29.369Z,7.37
2019-04-20T15:55:14.362Z,10.53
2019-04-20T15:57:51.449Z,7.87
2019-04-20T16:00:32.516Z,10.00
2019-04-20T16:03:19.491Z,7.87
2019-04-20T16:06:03.277Z,7.57
2019-04-20T16:08:48.336Z,8.60
2019-04-20T16:11:30.930Z,10.30
2019-04-20T16:14:13.553Z,7.10
2019-04-20T16:16:56.261Z,8.30
2019-04-20T16:19:46.336Z,8.20
2019-04-20T16:22:21.687Z,8.90
2019-04-20T16:28:15.284Z,15.37
2019-04-20T16:30:56.009Z,10.20
2019-04-20T16:33:37.202Z,8.77
2019-04-20T16:36:18.685Z,7.03
2019-04-20T16:38:59.623Z,8.40
2019-04-20T16:41:40.407Z,11.10
2019-04-20T16:44:21.292Z,7.33
2019-04-20T16:47:02.310Z,6.50
2019-04-20T16:49:43.533Z,7.70
2019-04-20T16:52:25.139Z,6.70
2019-04-20T16:55:06.033Z,7.70
2019-04-20T16:57:49.472Z,6.47
2019-04-20T17:00:31.512Z,6.50
2019-04-20T17:03:13.210Z,8.03
2019-04-20T17:05:54.146Z,6.30
2019-04-20T17:08:36.539Z,5.70
2019-04-20T17:11:18.167Z,6.10
2019-04-20T17:14:01.596Z,5.50
2019-04-20T17:16:41.890Z,6.10
2019-04-20T17:19:23.793Z,6.10
2019-04-20T17:22:05.515Z,4.73
2019-04-20T17:24:47.268Z,4.77
2019-04-20T17:27:46.927Z,5.07
2019-04-20T17:30:54.708Z,4.77
2019-04-20T17:36:39.785Z,7.43
2019-04-20T17:39:29.566Z,5.43
2019-04-20T17:42:16.542Z,5.10
2019-04-20T17:44:53.093Z,4.87
2019-04-20T17:47:48.656Z,5.30
2019-04-20T17:50:27.721Z,5.33
2019-04-20T17:53:05.219Z,6.87
2019-04-20T17:55:42.683Z,7.77
2019-04-20T17:58:27.917Z,5.27
2019-04-20T18:04:53.796Z,4.83
2019-04-20T18:07:35.477Z,5.33
2019-04-20T18:10:11.468Z,8.27
2019-04-20T18:12:42.943Z,4.43
2019-04-20T18:15:29.345Z,4.50
2019-04-20T18:18:31.853Z,4.60
2019-04-20T18:21:24.495Z,3.80
2019-04-20T18:24:25.704Z,4.47
2019-04-20T18:27:26.401Z,6.00
2019-04-20T18:32:49.289Z,4.07
2019-04-20T18:35:34.828Z,4.57
2019-04-20T18:38:16.599Z,6.13
2019-04-20T18:41:02.633Z,4.73
2019-04-20T18:43:44.791Z,6.33
2019-04-20T18:46:39.664Z,12.93
2019-04-20T18:49:19.984Z,9.27
2019-04-20T18:51:48.022Z,8.50
2019-04-20T18:54:34.709Z,8.50
2019-04-20T18:57:19.155Z,7.00
2019-04-20T18:59:56.678Z,6.63
2019-04-20T19:02:40.498Z,7.33
2019-04-20T19:05:20.116Z,5.37
2019-04-20T19:11:04.133Z,6.20
2019-04-20T19:17:00.361Z,5.00
2019-04-20T19:19:42.440Z,7.50
2019-04-20T19:22:19.576Z,6.10
2019-04-20T19:25:00.390Z,8.10
2019-04-20T19:27:48.423Z,6.90
2019-04-20T19:30:34.377Z,8.20
2019-04-20T19:33:24.170Z,6.83
2019-04-20T19:35:55.755Z,4.80
2019-04-20T19:38:44.170Z,8.00
2019-04-20T19:41:30.115Z,8.80
2019-04-20T19:44:10.025Z,5.17
2019-04-20T19:47:00.851Z,8.57
2019-04-20T19:49:36.081Z,5.57
2019-04-20T19:52:45.987Z,5.10
2019-04-20T19:55:08.247Z,5.27
2019-04-20T19:57:50.746Z,5.77
2019-04-20T20:00:14.614Z,5.40
2019-04-20T20:02:57.335Z,5.27
2019-04-20T20:05:43.623Z,6.80
2019-04-20T20:08:24.401Z,4.43
2019-04-20T20:11:05.063Z,5.70
2019-04-20T20:13:51.103Z,6.83
2019-04-20T20:16:44.031Z,5.73
2019-04-20T20:19:30.464Z,5.30
2019-04-20T20:22:06.722Z,7.97
2019-04-20T20:24:38.906Z,5.63
2019-04-20T20:27:31.770Z,6.53
2019-04-20T20:30:09.293Z,6.67
2019-04-20T20:33:04.857Z,7.20
2019-04-20T20:35:31.337Z,8.53
2019-04-20T20:38:19.051Z,13.00
2019-04-20T20:41:05.717Z,7.40
2019-04-20T20:43:49.565Z,5.93
2019-04-20T20:46:30.662Z,8.13
2019-04-20T20:49:16.564Z,6.60
2019-04-20T20:52:10.107Z,7.80
2019-04-20T20:54:38.455Z,7.50
2019-04-20T20:57:16.557Z,7.43
2019-04-20T20:59:57.394Z,8.40
2019-04-20T21:02:45.810Z,8.70
2019-04-20T21:05:17.693Z,8.03
2019-04-20T21:07:59.658Z,10.33
2019-04-20T21:13:40.210Z,7.47
2019-04-20T21:16:25.083Z,9.23
2019-04-20T21:19:17.255Z,8.03
2019-04-20T21:24:46.514Z,10.37
2019-04-20T21:30:18.344Z,6.73
2019-04-20T21:33:03.436Z,6.87
2019-04-20T21:35:44.622Z,15.60
2019-04-20T21:38:24.594Z,8.40
2019-04-20T21:41:09.360Z,14.73
2019-04-20T21:43:48.209Z,11.93
2019-04-20T21:46:36.184Z,8.37
2019-04-20T21:49:26.283Z,8.27
2019-04-20T21:52:00.703Z,9.57
2019-04-20T21:54:38.269Z,9.10
2019-04-20T21:57:20.008Z,9.50
2019-04-20T22:00:15.661Z,9.50
2019-04-20T22:02:52.150Z,10.10
2019-04-20T22:05:26.260Z,9.40
2019-04-20T22:08:09.646Z,7.43
2019-04-20T22:10:50.286Z,8.60
2019-04-20T22:13:37.685Z,9.20
2019-04-20T22:16:15.146Z,10.73
2019-04-20T22:19:13.636Z,9.23
2019-04-20T22:21:53.413Z,8.90
2019-04-20T22:24:39.912Z,9.73
2019-04-20T22:27:14.354Z,9.27
2019-04-20T22:29:48.394Z,10.50
2019-04-20T22:32:30.075Z,16.73
2019-04-20T22:35:15.448Z,11.20
2019-04-20T22:40:56.596Z,9.37
2019-04-20T22:43:40.312Z,9.40
2019-04-20T22:46:28.068Z,9.13
2019-04-20T22:49:24.471Z,8.57
2019-04-20T22:51:58.148Z,13.10
2019-04-20T22:54:44.677Z,9.07
2019-04-20T22:57:30.263Z,10.27
2019-04-20T23:00:04.700Z,7.80
2019-04-20T23:02:38.690Z,10.47
2019-04-20T23:05:20.563Z,8.40
2019-04-20T23:08:02.523Z,7.97
2019-04-20T23:10:46.882Z,8.53
2019-04-20T23:13:30.358Z,8.83
2019-04-20T23:16:09.304Z,8.10
2019-04-20T23:18:51.942Z,10.50
2019-04-20T23:21:34.103Z,9.33
2019-04-20T23:24:16.649Z,11.03
2019-04-20T23:26:57.754Z,9.03
2019-04-20T23:29:41.499Z,10.00
2019-04-20T23:32:22.484Z,7.70
2019-04-20T23:35:11.279Z,8.37
2019-04-20T23:37:46.515Z,8.33
2019-04-20T23:40:27.858Z,7.43
2019-04-20T23:43:18.892Z,7.10
2019-04-20T23:46:19.687Z,6.83
2019-04-20T23:49:23.244Z,7.17
2019-04-20T23:52:16.755Z,8.67
2019-04-20T23:54:48.995Z,11.33
2019-04-20T23:57:23.868Z,7.70
